createdAt,value
2022-12-28T00:02:18.698Z,100662.73
2022-12-28T00:04:48.036Z,100664.27
2022-12-28T00:07:17.260Z,100668.74
2022-12-28T00:09:45.773Z,100672.02
2022-12-28T00:12:14.303Z,100666.51
2022-12-28T00:14:43.103Z,100665.32
2022-12-28T00:17:14.898Z,100667.36
2022-12-28T00:19:43.615Z,100668.89
2022-12-28T00:22:12.289Z,100667.36
2022-12-28T00:24:40.874Z,100662.73
2022-12-28T00:27:09.607Z,100659.45
2022-12-28T00:29:38.292Z,100660.30
2022-12-28T00:32:06.847Z,100660.14
2022-12-28T00:34:35.361Z,100655.84
2022-12-28T00:37:08.884Z,100653.95
2022-12-28T00:39:42.604Z,100652.56
2022-12-28T00:42:11.460Z,100651.19
2022-12-28T00:44:40.296Z,100648.95
2022-12-28T00:47:09.406Z,100646.03
2022-12-28T00:49:40.925Z,100639.33
2022-12-28T00:52:09.397Z,100639.33
2022-12-28T00:54:37.860Z,100641.39
2022-12-28T00:57:06.453Z,100640.69
2022-12-28T00:59:35.178Z,100641.88
2022-12-28T01:02:03.743Z,100638.95
2022-12-28T01:04:32.342Z,100641.02
2022-12-28T01:07:00.960Z,100638.79
2022-12-28T01:09:32.801Z,100636.21
2022-12-28T01:12:01.303Z,100635.52
2022-12-28T01:14:29.844Z,100633.28
2022-12-28T01:16:58.518Z,100633.45
2022-12-28T01:19:27.244Z,100637.05
2022-12-28T01:21:58.180Z,100635.69
2022-12-28T01:24:26.671Z,100635.68
2022-12-28T01:26:55.206Z,100631.56
2022-12-28T01:29:23.765Z,100627.77
2022-12-28T01:31:52.201Z,100628.99
2022-12-28T01:34:20.769Z,100633.63
2022-12-28T01:36:49.196Z,100633.14
2022-12-28T01:39:17.673Z,100630.74
2022-12-28T01:41:46.752Z,100624.22
2022-12-28T01:44:15.376Z,100624.04
2022-12-28T01:46:50.159Z,100626.63
2022-12-28T01:49:25.381Z,100620.94
2022-12-28T01:52:35.828Z,100619.38
2022-12-28T01:55:11.075Z,100614.20
2022-12-28T01:57:54.335Z,100610.60
2022-12-28T02:00:24.565Z,100612.86
2022-12-28T02:03:07.666Z,100610.81
2022-12-28T02:05:43.611Z,100610.64
2022-12-28T02:08:19.765Z,100609.77
2022-12-28T02:10:48.754Z,100606.69
2022-12-28T02:13:19.220Z,100604.80
2022-12-28T02:15:49.620Z,100598.98
2022-12-28T02:18:20.202Z,100607.23
2022-12-28T02:21:10.305Z,100610.84
2022-12-28T02:24:07.215Z,100607.40
2022-12-28T02:26:47.522Z,100612.73
2022-12-28T02:29:15.936Z,100608.61
2022-12-28T02:31:47.424Z,100612.71
2022-12-28T02:34:46.228Z,100607.73
2022-12-28T02:37:51.878Z,100604.31
2022-12-28T02:40:45.748Z,100599.33
2022-12-28T02:43:15.050Z,100598.64
2022-12-28T02:46:03.384Z,100596.59
2022-12-28T02:49:02.539Z,100595.55
2022-12-28T02:52:12.458Z,100591.09
2022-12-28T02:55:29.819Z,100587.65
2022-12-28T02:58:16.831Z,100582.48
2022-12-28T03:00:57.167Z,100583.34
2022-12-28T03:03:39.535Z,100579.73
2022-12-28T03:06:34.753Z,100566.52
2022-12-28T03:09:07.622Z,100557.23
2022-12-28T03:11:54.058Z,100559.80
2022-12-28T03:14:45.079Z,100555.69
2022-12-28T03:17:34.565Z,100548.30
2022-12-28T03:20:29.811Z,100542.79
2022-12-28T03:23:21.615Z,100545.37
2022-12-28T03:26:10.299Z,100544.52
2022-12-28T03:29:04.056Z,100542.64
2022-12-28T03:31:36.777Z,100537.65
2022-12-28T03:34:08.943Z,100527.33
2022-12-28T03:37:41.807Z,100517.70
2022-12-28T03:40:28.101Z,100521.84
2022-12-28T03:43:23.190Z,100523.56
2022-12-28T03:46:03.075Z,100519.95
2022-12-28T03:48:37.680Z,100515.66
2022-12-28T03:51:06.340Z,100512.56
2022-12-28T03:53:41.284Z,100509.13
2022-12-28T03:56:20.099Z,100505.00
2022-12-28T03:58:50.215Z,100505.18
2022-12-28T04:01:21.287Z,100500.54
2022-12-28T04:03:50.334Z,100500.36
2022-12-28T04:06:20.382Z,100494.52
2022-12-28T04:08:48.935Z,100492.46
2022-12-28T04:11:17.427Z,100489.02
2022-12-28T04:13:49.882Z,100489.70
2022-12-28T04:16:19.551Z,100493.84
2022-12-28T04:18:48.562Z,100488.69
2022-12-28T04:21:17.172Z,100485.59
2022-12-28T04:23:46.763Z,100472.89
2022-12-28T04:26:22.045Z,100475.30
2022-12-28T04:28:53.523Z,100470.32
2022-12-28T04:31:25.105Z,100471.69
2022-12-28T04:33:59.580Z,100468.42
2022-12-28T04:36:28.901Z,100466.52
2022-12-28T04:38:58.846Z,100459.33
2022-12-28T04:41:27.799Z,100456.75
2022-12-28T04:43:56.460Z,100452.27
2022-12-28T04:46:25.239Z,100448.66
2022-12-28T04:48:53.726Z,100442.48
2022-12-28T04:51:25.336Z,100440.26
2022-12-28T04:53:55.858Z,100440.56
2022-12-28T04:56:26.225Z,100438.34
2022-12-28T04:58:56.450Z,100433.35
2022-12-28T05:01:25.352Z,100429.92
2022-12-28T05:03:58.057Z,100422.37
2022-12-28T05:06:29.527Z,100421.52
2022-12-28T05:08:58.364Z,100418.09
2022-12-28T05:11:28.895Z,100414.47
2022-12-28T05:13:57.895Z,100410.52
2022-12-28T05:16:29.858Z,100402.96
2022-12-28T05:18:58.557Z,100396.95
2022-12-28T05:21:28.929Z,100394.38
2022-12-28T05:23:58.648Z,100393.14
2022-12-28T05:26:29.730Z,100386.48
2022-12-28T05:28:59.076Z,100381.00
2022-12-28T05:31:28.062Z,100376.54
2022-12-28T05:33:56.593Z,100378.93
2022-12-28T05:36:27.335Z,100372.77
2022-12-28T05:38:56.978Z,100367.27
2022-12-28T05:41:30.295Z,100371.73
2022-12-28T05:43:59.856Z,100378.59
2022-12-28T05:46:30.932Z,100373.29
2022-12-28T05:49:00.612Z,100373.81
2022-12-28T05:51:31.775Z,100372.45
2022-12-28T05:54:01.806Z,100371.94
2022-12-28T05:56:32.468Z,100364.91
2022-12-28T05:59:05.819Z,100351.70
2022-12-28T06:01:38.542Z,100344.84
2022-12-28T06:04:13.786Z,100333.54
2022-12-28T06:06:43.132Z,100327.17
2022-12-28T06:09:12.288Z,100331.30
2022-12-28T06:11:40.903Z,100324.09
2022-12-28T06:14:09.754Z,100320.31
2022-12-28T06:16:42.176Z,100319.46
2022-12-28T06:19:14.855Z,100314.83
2022-12-28T06:21:43.892Z,100320.66
2022-12-28T06:24:14.035Z,100321.86
2022-12-28T06:26:42.757Z,100319.64
2022-12-28T06:29:12.750Z,100319.46
2022-12-28T06:31:47.250Z,100312.77
2022-12-28T06:34:15.805Z,100310.55
2022-12-28T06:36:46.442Z,100306.60
2022-12-28T06:39:15.130Z,100304.02
2022-12-28T06:41:43.886Z,100300.77
2022-12-28T06:44:13.887Z,100296.14
2022-12-28T06:46:42.638Z,100287.40
2022-12-28T06:49:11.176Z,100285.84
2022-12-28T06:51:42.259Z,100289.78
2022-12-28T06:54:11.704Z,100291.84
2022-12-28T06:56:40.370Z,100289.27
2022-12-28T06:59:08.911Z,100292.20
2022-12-28T07:01:40.164Z,100291.00
2022-12-28T07:04:10.391Z,100287.40
2022-12-28T07:06:44.327Z,100283.27
2022-12-28T07:09:16.296Z,100279.51
2022-12-28T07:11:45.484Z,100271.61
2022-12-28T07:14:14.339Z,100272.46
2022-12-28T07:16:42.985Z,100270.75
2022-12-28T07:19:11.489Z,100261.48
2022-12-28T07:21:40.718Z,100259.77
2022-12-28T07:24:09.615Z,100252.73
2022-12-28T07:26:38.435Z,100251.19
2022-12-28T07:29:08.842Z,100249.48
2022-12-28T07:31:45.126Z,100246.05
2022-12-28T07:34:17.473Z,100243.14
2022-12-28T07:36:46.060Z,100239.52
2022-12-28T07:39:14.555Z,100233.86
2022-12-28T07:41:44.234Z,100231.27
2022-12-28T07:44:12.833Z,100230.08
2022-12-28T07:46:41.333Z,100229.73
2022-12-28T07:49:09.808Z,100224.57
2022-12-28T07:51:39.288Z,100224.05
2022-12-28T07:54:07.964Z,100222.67
2022-12-28T07:59:06.274Z,100214.27
2022-12-28T08:01:36.914Z,100203.80
2022-12-28T08:04:09.323Z,100206.88
2022-12-28T08:06:40.931Z,100204.98
2022-12-28T08:09:11.989Z,100199.83
2022-12-28T08:11:43.203Z,100199.14
2022-12-28T08:14:12.462Z,100196.75
2022-12-28T08:16:43.462Z,100195.91
2022-12-28T08:19:12.519Z,100186.27
2022-12-28T08:21:44.977Z,100185.05
2022-12-28T08:24:17.229Z,100185.20
2022-12-28T08:26:46.403Z,100189.31
2022-12-28T08:29:19.300Z,100188.77
2022-12-28T08:31:49.238Z,100191.52
2022-12-28T08:34:22.712Z,100189.30
2022-12-28T08:36:51.470Z,100187.92
2022-12-28T08:39:20.081Z,100192.56
2022-12-28T08:41:48.636Z,100192.92
2022-12-28T08:44:17.171Z,100190.71
2022-12-28T08:46:45.785Z,100193.12
2022-12-28T08:49:14.509Z,100190.40
2022-12-28T08:51:43.061Z,100184.40
2022-12-28T08:54:13.827Z,100185.43
2022-12-28T08:56:44.719Z,100184.72
2022-12-28T08:59:18.140Z,100175.45
2022-12-28T09:01:47.591Z,100174.06
2022-12-28T09:04:19.408Z,100172.34
2022-12-28T09:06:48.997Z,100178.16
2022-12-28T09:09:19.829Z,100177.14
2022-12-28T09:11:48.865Z,100169.58
2022-12-28T09:14:23.652Z,100168.02
2022-12-28T09:16:54.324Z,100164.45
2022-12-28T09:19:23.281Z,100162.21
2022-12-28T09:21:53.457Z,100159.46
2022-12-28T09:24:23.380Z,100151.05
2022-12-28T09:26:54.775Z,100151.39
2022-12-28T09:29:23.513Z,100154.97
2022-12-28T09:31:51.981Z,100150.86
2022-12-28T09:34:35.572Z,100145.05
2022-12-28T09:37:06.663Z,100138.69
2022-12-28T09:39:37.142Z,100136.42
2022-12-28T09:42:21.747Z,100133.16
2022-12-28T09:44:59.711Z,100134.90
2022-12-28T09:47:30.826Z,100125.12
2022-12-28T09:50:05.075Z,100114.33
2022-12-28T09:52:53.496Z,100110.58
2022-12-28T09:55:22.851Z,100096.49
2022-12-28T09:57:55.788Z,100076.38
2022-12-28T10:00:26.992Z,100087.34
2022-12-28T10:03:02.846Z,100084.06
2022-12-28T10:05:31.616Z,100084.06
2022-12-28T10:08:01.741Z,100073.59
2022-12-28T10:10:30.732Z,100071.70
2022-12-28T10:13:45.634Z,100055.04
2022-12-28T10:16:06.619Z,100054.17
2022-12-28T10:18:39.573Z,100049.16
2022-12-28T10:21:08.671Z,100029.40
2022-12-28T10:23:56.795Z,100006.88
2022-12-28T10:26:28.604Z,100019.04
2022-12-28T10:29:01.042Z,100034.26
2022-12-28T10:31:35.701Z,100013.61
2022-12-28T10:34:23.277Z,99992.70
2022-12-28T10:36:54.457Z,99994.62
2022-12-28T10:39:29.941Z,99985.04
2022-12-28T10:42:00.976Z,99984.48
2022-12-28T10:44:40.717Z,99999.91
2022-12-28T10:47:35.961Z,99995.45
2022-12-28T10:52:58.651Z,99990.79
2022-12-28T10:55:30.263Z,100001.08
2022-12-28T10:58:32.073Z,99998.30
2022-12-28T11:01:04.443Z,99991.06
2022-12-28T11:03:35.827Z,99983.88
2022-12-28T11:06:27.497Z,99979.08
2022-12-28T11:09:07.108Z,99970.46
2022-12-28T11:11:35.555Z,99973.19
2022-12-28T11:14:12.887Z,99969.06
2022-12-28T11:16:42.396Z,99963.00
2022-12-28T11:19:12.904Z,99960.39
2022-12-28T11:21:43.385Z,99958.34
2022-12-28T11:24:16.497Z,99952.78
2022-12-28T11:26:48.396Z,99941.94
2022-12-28T11:29:19.295Z,99940.59
2022-12-28T11:32:05.595Z,99928.38
2022-12-28T11:34:37.380Z,99922.84
2022-12-28T11:37:15.124Z,99916.91
2022-12-28T11:39:48.917Z,99919.60
2022-12-28T11:42:41.380Z,99915.42
2022-12-28T11:45:37.237Z,99916.90
2022-12-28T11:48:44.317Z,99906.72
2022-12-28T11:51:21.742Z,99901.27
2022-12-28T11:53:51.960Z,99894.34
2022-12-28T11:56:22.801Z,99890.33
2022-12-28T11:59:02.207Z,99884.20
2022-12-28T12:01:30.982Z,99882.64
2022-12-28T12:03:59.575Z,99887.52
2022-12-28T12:06:43.511Z,99882.26
2022-12-28T12:09:21.255Z,99875.27
2022-12-28T12:12:19.755Z,99865.85
2022-12-28T12:15:02.176Z,99862.08
2022-12-28T12:17:43.101Z,99857.87
2022-12-28T12:20:30.798Z,99852.08
2022-12-28T12:23:08.348Z,99853.16
2022-12-28T12:25:43.068Z,99849.40
2022-12-28T12:28:21.179Z,99845.76
2022-12-28T12:30:51.040Z,99840.73
2022-12-28T12:33:27.506Z,99827.42
2022-12-28T12:36:20.876Z,99824.67
2022-12-28T12:39:18.297Z,99816.90
2022-12-28T12:41:47.046Z,99820.17
2022-12-28T12:44:53.605Z,99825.36
2022-12-28T12:48:00.358Z,99829.00
2022-12-28T12:50:47.148Z,99816.85
2022-12-28T12:53:30.938Z,99810.02
2022-12-28T12:56:24.255Z,99811.12
2022-12-28T12:59:23.761Z,99804.40
2022-12-28T13:02:30.290Z,99794.21
2022-12-28T13:05:03.413Z,99794.38
2022-12-28T13:07:33.684Z,99798.45
2022-12-28T13:10:04.475Z,99800.31
2022-12-28T13:12:32.994Z,99787.79
2022-12-28T13:15:07.530Z,99785.45
2022-12-28T13:18:11.286Z,99783.98
2022-12-28T13:20:58.440Z,99776.16
2022-12-28T13:23:29.268Z,99776.17
2022-12-28T13:26:02.431Z,99773.73
2022-12-28T13:28:34.872Z,99763.45
2022-12-28T13:31:09.345Z,99758.32
2022-12-28T13:33:39.214Z,99755.90
2022-12-28T13:36:13.792Z,99755.04
2022-12-28T13:38:42.322Z,99749.73
2022-12-28T13:41:32.560Z,99750.10
2022-12-28T13:44:36.316Z,99750.44
2022-12-28T13:47:25.517Z,99754.66
2022-12-28T13:50:02.120Z,99754.77
2022-12-28T13:52:39.337Z,99756.70
2022-12-28T13:55:13.622Z,99759.75
2022-12-28T13:57:50.151Z,99751.05
2022-12-28T14:00:22.704Z,99747.25
2022-12-28T14:02:54.116Z,99747.95
2022-12-28T14:05:31.145Z,99756.67
2022-12-28T14:08:00.824Z,99755.30
2022-12-28T14:10:29.631Z,99753.05
2022-12-28T14:12:59.254Z,99752.38
2022-12-28T14:15:28.170Z,99751.00
2022-12-28T14:17:57.444Z,99747.48
2022-12-28T14:20:26.116Z,99743.08
2022-12-28T14:22:54.774Z,99740.48
2022-12-28T14:25:23.869Z,99737.48
2022-12-28T14:27:57.243Z,99740.73
2022-12-28T14:30:55.936Z,99743.98
2022-12-28T14:33:29.754Z,99746.27
2022-12-28T14:36:02.405Z,99748.38
2022-12-28T14:38:46.287Z,99749.95
2022-12-28T14:41:25.851Z,99744.73
2022-12-28T14:43:57.572Z,99739.91
2022-12-28T14:46:36.066Z,99738.50
2022-12-28T14:49:29.272Z,99739.02
2022-12-28T14:52:17.970Z,99737.95
2022-12-28T14:54:52.031Z,99734.32
2022-12-28T14:57:41.664Z,99735.84
2022-12-28T15:00:16.523Z,99731.56
2022-12-28T15:02:45.509Z,99728.65
2022-12-28T15:05:36.261Z,99725.17
2022-12-28T15:08:05.143Z,99724.60
2022-12-28T15:10:39.114Z,99725.39
2022-12-28T15:13:08.316Z,99725.75
2022-12-28T15:15:37.007Z,99727.61
2022-12-28T15:18:05.717Z,99719.55
2022-12-28T15:20:37.260Z,99715.38
2022-12-28T15:23:05.924Z,99720.61
2022-12-28T15:25:35.701Z,99719.34
2022-12-28T15:28:04.621Z,99717.77
2022-12-28T15:30:33.145Z,99723.10
2022-12-28T15:33:01.583Z,99714.77
2022-12-28T15:35:30.067Z,99721.44
2022-12-28T15:37:58.563Z,99719.16
2022-12-28T15:40:27.125Z,99718.57
2022-12-28T15:42:55.894Z,99710.51
2022-12-28T15:45:24.533Z,99706.95
2022-12-28T15:47:54.463Z,99712.63
2022-12-28T15:50:23.113Z,99706.92
2022-12-28T15:52:51.608Z,99710.71
2022-12-28T15:55:20.098Z,99709.98
2022-12-28T15:57:48.571Z,99721.65
2022-12-28T16:00:19.057Z,99719.52
2022-12-28T16:02:47.728Z,99719.11
2022-12-28T16:05:16.685Z,99716.92
2022-12-28T16:07:45.156Z,99722.11
2022-12-28T16:10:13.714Z,99715.56
2022-12-28T16:12:42.161Z,99714.89
2022-12-28T16:15:11.255Z,99715.95
2022-12-28T16:17:48.604Z,99706.80
2022-12-28T16:20:21.688Z,99708.94
2022-12-28T16:22:50.176Z,99704.94
2022-12-28T16:25:18.719Z,99695.48
2022-12-28T16:27:47.212Z,99693.64
2022-12-28T16:30:15.745Z,99690.69
2022-12-28T16:32:46.526Z,99690.61
2022-12-28T16:35:15.666Z,99691.48
2022-12-28T16:37:44.125Z,99697.84
2022-12-28T16:40:12.768Z,99707.79
2022-12-28T16:42:45.944Z,99698.80
2022-12-28T16:45:15.154Z,99696.90
2022-12-28T16:47:45.054Z,99691.36
2022-12-28T16:50:16.796Z,99687.44
2022-12-28T16:52:45.422Z,99683.64
2022-12-28T16:55:13.950Z,99691.17
2022-12-28T16:57:42.418Z,99690.44
2022-12-28T17:00:11.741Z,99683.61
2022-12-28T17:02:40.438Z,99680.17
2022-12-28T17:05:09.442Z,99680.23
2022-12-28T17:07:37.949Z,99679.46
2022-12-28T17:10:07.037Z,99679.73
2022-12-28T17:12:35.534Z,99684.23
2022-12-28T17:15:05.452Z,99687.11
2022-12-28T17:17:34.145Z,99687.28
2022-12-28T17:20:02.645Z,99685.77
2022-12-28T17:22:31.191Z,99685.98
2022-12-28T17:24:59.757Z,99684.75
2022-12-28T17:27:28.555Z,99687.16
2022-12-28T17:29:57.219Z,99693.59
2022-12-28T17:32:25.906Z,99684.27
2022-12-28T17:34:54.520Z,99681.16
2022-12-28T17:37:23.019Z,99668.61
2022-12-28T17:39:51.503Z,99666.40
2022-12-28T17:42:20.204Z,99666.70
2022-12-28T17:44:48.895Z,99660.38
2022-12-28T17:47:17.354Z,99669.11
2022-12-28T17:49:45.866Z,99674.40
2022-12-28T17:52:20.198Z,99670.07
2022-12-28T17:54:48.750Z,99667.98
2022-12-28T17:57:17.948Z,99665.36
2022-12-28T17:59:46.405Z,99668.40
2022-12-28T18:02:15.138Z,99664.73
2022-12-28T18:04:43.828Z,99662.73
2022-12-28T18:07:12.662Z,99667.30
2022-12-28T18:09:41.152Z,99663.27
2022-12-28T18:12:09.713Z,99674.44
2022-12-28T18:14:38.262Z,99673.77
2022-12-28T18:17:06.799Z,99675.23
2022-12-28T18:19:35.375Z,99677.95
2022-12-28T18:22:04.085Z,99672.73
2022-12-28T18:24:32.924Z,99669.92
2022-12-28T18:27:01.372Z,99669.54
2022-12-28T18:29:30.078Z,99669.86
2022-12-28T18:31:58.615Z,99671.19
2022-12-28T18:34:27.055Z,99665.67
2022-12-28T18:36:55.517Z,99665.24
2022-12-28T18:39:24.025Z,99663.54
2022-12-28T18:41:52.547Z,99660.34
2022-12-28T18:44:21.169Z,99664.23
2022-12-28T18:46:49.654Z,99663.11
2022-12-28T18:49:18.652Z,99660.59
2022-12-28T18:51:47.336Z,99658.89
2022-12-28T18:54:15.843Z,99654.46
2022-12-28T18:56:44.693Z,99653.09
2022-12-28T18:59:13.290Z,99651.54
2022-12-28T19:04:30.411Z,99653.50
2022-12-28T19:06:59.084Z,99655.92
2022-12-28T19:09:27.560Z,99655.74
2022-12-28T19:11:56.313Z,99653.23
2022-12-28T19:14:24.851Z,99655.52
2022-12-28T19:16:53.332Z,99658.95
2022-12-28T19:19:21.955Z,99658.78
2022-12-28T19:21:56.635Z,99658.77
2022-12-28T19:24:27.210Z,99661.81
2022-12-28T19:26:55.692Z,99665.15
2022-12-28T19:29:24.813Z,99666.36
2022-12-28T19:31:54.093Z,99665.84
2022-12-28T19:34:22.874Z,99667.67
2022-12-28T19:36:51.302Z,99667.53
2022-12-28T19:39:20.229Z,99665.95
2022-12-28T19:41:48.664Z,99666.00
2022-12-28T19:44:20.295Z,99666.39
2022-12-28T19:46:49.213Z,99666.16
2022-12-28T19:49:17.722Z,99668.08
2022-12-28T19:51:46.195Z,99662.18
2022-12-28T19:54:15.150Z,99663.17
2022-12-28T19:56:44.788Z,99663.17
2022-12-28T19:59:13.440Z,99657.70
2022-12-28T20:01:42.242Z,99664.27
2022-12-28T20:04:14.030Z,99665.37
2022-12-28T20:06:44.412Z,99661.66
2022-12-28T20:09:14.189Z,99658.66
2022-12-28T20:11:44.995Z,99654.02
2022-12-28T20:14:19.092Z,99651.02
2022-12-28T20:16:51.874Z,99655.33
2022-12-28T20:19:20.527Z,99651.23
2022-12-28T20:21:49.887Z,99653.17
2022-12-28T20:24:20.074Z,99651.45
2022-12-28T20:26:48.958Z,99656.70
2022-12-28T20:29:18.572Z,99649.01
2022-12-28T20:31:49.573Z,99646.47
2022-12-28T20:34:18.303Z,99644.27
2022-12-28T20:36:46.765Z,99637.57
2022-12-28T20:39:15.551Z,99637.30
2022-12-28T20:42:03.111Z,99636.95
2022-12-28T20:44:34.184Z,99641.90
2022-12-28T20:47:03.170Z,99634.11
2022-12-28T20:49:32.137Z,99636.31
2022-12-28T20:52:00.596Z,99632.86
2022-12-28T20:54:29.176Z,99635.29
2022-12-28T20:56:57.699Z,99631.77
2022-12-28T20:59:26.331Z,99634.75
2022-12-28T21:01:55.040Z,99636.39
2022-12-28T21:04:24.989Z,99635.98
2022-12-28T21:06:54.769Z,99640.06
2022-12-28T21:09:23.321Z,99647.20
2022-12-28T21:11:52.113Z,99649.81
2022-12-28T21:14:20.795Z,99649.29
2022-12-28T21:16:49.487Z,99650.81
2022-12-28T21:19:18.093Z,99654.64
2022-12-28T21:21:48.506Z,99649.06
2022-12-28T21:24:17.140Z,99649.66
2022-12-28T21:26:45.685Z,99641.74
2022-12-28T21:29:14.327Z,99642.92
2022-12-28T21:31:43.874Z,99643.73
2022-12-28T21:34:12.347Z,99639.59
2022-12-28T21:36:40.925Z,99636.88
2022-12-28T21:39:09.922Z,99637.59
2022-12-28T21:41:50.624Z,99637.20
2022-12-28T21:44:24.610Z,99634.25
2022-12-28T21:46:53.975Z,99637.13
2022-12-28T21:49:22.695Z,99637.19
2022-12-28T21:51:51.648Z,99635.73
2022-12-28T21:54:21.736Z,99632.89
2022-12-28T21:56:53.042Z,99628.62
2022-12-28T21:59:23.623Z,99630.93
2022-12-28T22:02:11.843Z,99630.11
2022-12-28T22:05:03.049Z,99628.09
2022-12-28T22:07:34.968Z,99621.30
2022-12-28T22:10:22.514Z,99622.21
2022-12-28T22:12:50.947Z,99614.59
2022-12-28T22:15:40.806Z,99607.58
2022-12-28T22:21:09.772Z,99600.54
2022-12-28T22:23:38.479Z,99600.59
2022-12-28T22:26:07.173Z,99600.86
2022-12-28T22:28:35.843Z,99599.30
2022-12-28T22:31:06.355Z,99597.54
2022-12-28T22:33:34.970Z,99597.96
2022-12-28T22:36:17.908Z,99594.09
2022-12-28T22:38:46.631Z,99589.14
2022-12-28T22:41:15.159Z,99591.54
2022-12-28T22:43:43.673Z,99593.97
2022-12-28T22:46:12.408Z,99595.97
2022-12-28T22:48:40.896Z,99593.16
2022-12-28T22:51:12.667Z,99593.77
2022-12-28T22:53:42.166Z,99592.77
2022-12-28T22:56:15.842Z,99584.04
2022-12-28T22:58:44.436Z,99581.96
2022-12-28T23:01:18.934Z,99582.45
2022-12-28T23:03:48.687Z,99579.73
2022-12-28T23:06:19.799Z,99578.65
2022-12-28T23:08:48.545Z,99576.81
2022-12-28T23:11:36.784Z,99573.54
2022-12-28T23:14:27.936Z,99573.92
2022-12-28T23:16:56.917Z,99570.58
2022-12-28T23:19:45.514Z,99567.91
2022-12-28T23:22:36.871Z,99563.55
2022-12-28T23:25:24.360Z,99561.65
2022-12-28T23:27:52.828Z,99559.76
2022-12-28T23:30:22.531Z,99558.19
2022-12-28T23:32:53.114Z,99551.35
2022-12-28T23:35:24.374Z,99546.56
2022-12-28T23:37:53.827Z,99546.75
2022-12-28T23:40:23.067Z,99545.47
2022-12-28T23:42:54.191Z,99545.86
2022-12-28T23:45:23.061Z,99547.59
2022-12-28T23:47:55.445Z,99545.42
2022-12-28T23:50:24.100Z,99538.46
2022-12-28T23:52:52.886Z,99536.98
2022-12-28T23:55:21.618Z,99537.84
2022-12-28T23:57:50.001Z,99537.45
